Sinclairville, NY (14782)

3:33 PM EST on November 23, 2017 (GMT -0500)
Ross Mills | | Change Station

Elev 1280 ft 42.16 °N, 79.22 °W | Updated 10 seconds ago

Overcast
Overcast
34.0 °F
Feels Like 30 °F
N
4.0
Wind Variable Wind from South

Today
High -- | Low -- °F
--% Chance of Precip.
Yesterday
High -- | Low -- °F
Precip. -- in
Pressure 30.04 in
Visibility 10.0 miles
Clouds Overcast 9000 ft
Windchill 30 °F
Dew Point 24 °F
Humidity 69%
Rainfall 0.00 in
Snow Depth Not available.
7:17 AM 4:49 PM
Waxing Crescent, 24% visible
METAR KJHW 231956Z AUTO 21009KT 10SM OVC090 M01/M06 A2996 RMK AO2 SLP171 T10061056 FZRANO
Pressure 30.04 in
Visibility 10.0 miles
Clouds Overcast 9000 ft
Windchill 30 °F
Dew Point 24 °F
Humidity 69%
Rainfall 0.00 in
Snow Depth Not available.
7:17 AM 4:49 PM
Waxing Crescent, 24% visible
METAR KJHW 231956Z AUTO 21009KT 10SM OVC090 M01/M06 A2996 RMK AO2 SLP171 T10061056 FZRANO

Get Severe Weather Alerts

Thanks for signing up!

Be on the lookout for a verification email in your inbox.

You'll start receiving the daily forecast at 6 AM.

×

10-Day Weather Forecast

Almanac

Astronomy

Nov. 23, 2017 Rise Set
Actual Time
Civil Twilight
Nautical Twilight
Astronomical Twilight
Moon
Length of Visible Light
Length of Day
Tomorrow will be .
, % of the Moon is Illuminated

Today's Extremes

State Highs State Lows

Community

WunderPhotos

Category 6

Welcome to Category 6. This is the collective home for Weather Underground's featured writeups by Dr. Jeff Masters (right), Bob Henson (left), Chris Burt, and other regular contributors.

Nearby

Air Quality

  Air Quality AQ Index Pollutant
Not available.

Snow Depth

Station Depth Elevation

Earthquake Activity

City Distance Mag. Time & Date
Minimum magnitude displayed is 2.5.

Coastal Water Temperatures

Place Temperature

Stations

Nearby Weather Stations

Station Location Temp. Windchill Dew Point Humidity Wind Precip. Elev Updated Type
                   

Watches & Warnings

There are currently no watches in effect.